Terminal Aerodrome Forecast
Issued by NWS Shreveport, LA

Home | Current Version | Previous Version | Text Only | Print | Product List | Glossary On
Versions: 1 2 3 4 5 6 7 8 9 10 11 12 13
000
FTUS44 KSHV 290520
TAFTXK
TAF
KTXK 290520Z 2906/3006 12003KT P6SM SKC
     FM291000 16004KT P6SM BKN015
      TEMPO 2911/2913 BKN008 OVC015
     FM291800 17008KT P6SM BKN040
     FM300000 15004KT P6SM SCT050=

USA.gov is the U.S. government's official web portal to all federal, state and local government web resources and services.